sensor_id;sensor_type;location;lat;lon;timestamp;P1;durP1;ratioP1;P2;durP2;ratioP2
38226;SDS011;24026;49.446;8.576;2023-04-06T00:01:02;131.07;;;117.38;;
38226;SDS011;24026;49.446;8.576;2023-04-06T00:03:23;128.25;;;114.78;;
38226;SDS011;24026;49.446;8.576;2023-04-06T00:05:43;131.55;;;117.85;;
38226;SDS011;24026;49.446;8.576;2023-04-06T00:08:04;129.63;;;115.97;;
38226;SDS011;24026;49.446;8.576;2023-04-06T00:10:25;129.35;;;115.88;;
38226;SDS011;24026;49.446;8.576;2023-04-06T00:12:46;129.45;;;115.80;;
38226;SDS011;24026;49.446;8.576;2023-04-06T00:15:07;131.40;;;117.65;;
38226;SDS011;24026;49.446;8.576;2023-04-06T00:17:29;130.65;;;116.45;;
38226;SDS011;24026;49.446;8.576;2023-04-06T00:19:51;130.73;;;117.10;;
38226;SDS011;24026;49.446;8.576;2023-04-06T00:22:11;130.50;;;116.60;;
38226;SDS011;24026;49.446;8.576;2023-04-06T00:24:33;129.23;;;115.75;;
38226;SDS011;24026;49.446;8.576;2023-04-06T00:26:54;130.02;;;116.53;;
38226;SDS011;24026;49.446;8.576;2023-04-06T00:29:15;127.97;;;114.63;;
38226;SDS011;24026;49.446;8.576;2023-04-06T00:31:36;128.20;;;114.60;;
38226;SDS011;24026;49.446;8.576;2023-04-06T00:33:57;131.07;;;117.35;;
38226;SDS011;24026;49.446;8.576;2023-04-06T00:36:18;127.38;;;113.97;;
38226;SDS011;24026;49.446;8.576;2023-04-06T00:38:39;130.68;;;117.25;;
38226;SDS011;24026;49.446;8.576;2023-04-06T00:41:00;127.20;;;113.68;;
38226;SDS011;24026;49.446;8.576;2023-04-06T00:43:21;129.88;;;116.35;;
38226;SDS011;24026;49.446;8.576;2023-04-06T00:45:44;129.80;;;116.28;;
38226;SDS011;24026;49.446;8.576;2023-04-06T00:48:05;128.10;;;114.60;;
38226;SDS011;24026;49.446;8.576;2023-04-06T00:50:27;129.80;;;116.28;;
38226;SDS011;24026;49.446;8.576;2023-04-06T00:52:48;129.68;;;116.10;;
38226;SDS011;24026;49.446;8.576;2023-04-06T00:55:09;129.68;;;116.00;;
38226;SDS011;24026;49.446;8.576;2023-04-06T00:57:31;128.00;;;114.70;;
38226;SDS011;24026;49.446;8.576;2023-04-06T00:59:52;130.75;;;117.20;;
38226;SDS011;24026;49.446;8.576;2023-04-06T01:02:13;128.73;;;115.22;;
38226;SDS011;24026;49.446;8.576;2023-04-06T01:04:35;131.27;;;117.57;;
38226;SDS011;24026;49.446;8.576;2023-04-06T01:06:56;126.70;;;113.25;;
38226;SDS011;24026;49.446;8.576;2023-04-06T01:09:17;131.60;;;117.82;;
38226;SDS011;24026;49.446;8.576;2023-04-06T01:11:38;128.55;;;115.15;;
38226;SDS011;24026;49.446;8.576;2023-04-06T01:13:59;129.15;;;115.50;;
38226;SDS011;24026;49.446;8.576;2023-04-06T01:16:20;130.07;;;116.50;;
38226;SDS011;24026;49.446;8.576;2023-04-06T01:18:41;127.82;;;114.28;;
38226;SDS011;24026;49.446;8.576;2023-04-06T01:21:02;128.68;;;115.22;;
38226;SDS011;24026;49.446;8.576;2023-04-06T01:23:24;126.88;;;113.40;;
38226;SDS011;24026;49.446;8.576;2023-04-06T01:25:45;130.20;;;116.70;;
38226;SDS011;24026;49.446;8.576;2023-04-06T01:28:06;129.85;;;116.32;;
38226;SDS011;24026;49.446;8.576;2023-04-06T01:30:28;128.82;;;115.45;;
38226;SDS011;24026;49.446;8.576;2023-04-06T01:32:48;127.63;;;114.07;;
38226;SDS011;24026;49.446;8.576;2023-04-06T01:35:10;129.95;;;116.28;;
38226;SDS011;24026;49.446;8.576;2023-04-06T01:37:31;130.27;;;116.70;;
38226;SDS011;24026;49.446;8.576;2023-04-06T01:39:52;128.15;;;114.70;;
38226;SDS011;24026;49.446;8.576;2023-04-06T01:42:13;128.98;;;115.43;;
38226;SDS011;24026;49.446;8.576;2023-04-06T01:44:34;127.75;;;114.22;;
38226;SDS011;24026;49.446;8.576;2023-04-06T01:46:55;126.28;;;112.78;;
38226;SDS011;24026;49.446;8.576;2023-04-06T01:49:16;129.65;;;115.75;;
38226;SDS011;24026;49.446;8.576;2023-04-06T01:51:37;128.15;;;114.65;;
38226;SDS011;24026;49.446;8.576;2023-04-06T01:53:57;130.82;;;116.97;;
38226;SDS011;24026;49.446;8.576;2023-04-06T01:56:18;128.50;;;114.95;;
38226;SDS011;24026;49.446;8.576;2023-04-06T01:58:38;129.85;;;116.20;;
38226;SDS011;24026;49.446;8.576;2023-04-06T02:00:59;130.88;;;117.28;;
38226;SDS011;24026;49.446;8.576;2023-04-06T02:03:20;129.13;;;115.45;;
38226;SDS011;24026;49.446;8.576;2023-04-06T02:05:40;128.95;;;115.35;;
38226;SDS011;24026;49.446;8.576;2023-04-06T02:08:01;128.68;;;115.10;;
38226;SDS011;24026;49.446;8.576;2023-04-06T02:10:21;127.90;;;114.45;;
38226;SDS011;24026;49.446;8.576;2023-04-06T02:12:43;130.13;;;116.47;;
38226;SDS011;24026;49.446;8.576;2023-04-06T02:15:04;127.47;;;113.97;;
38226;SDS011;24026;49.446;8.576;2023-04-06T02:17:25;127.35;;;113.90;;
38226;SDS011;24026;49.446;8.576;2023-04-06T02:19:45;128.43;;;114.95;;
38226;SDS011;24026;49.446;8.576;2023-04-06T02:22:06;129.00;;;115.40;;
38226;SDS011;24026;49.446;8.576;2023-04-06T02:24:26;127.80;;;114.35;;
38226;SDS011;24026;49.446;8.576;2023-04-06T02:26:47;129.65;;;116.05;;
38226;SDS011;24026;49.446;8.576;2023-04-06T02:29:08;126.47;;;112.88;;
38226;SDS011;24026;49.446;8.576;2023-04-06T02:31:29;129.00;;;115.35;;
38226;SDS011;24026;49.446;8.576;2023-04-06T02:33:50;128.98;;;115.40;;
38226;SDS011;24026;49.446;8.576;2023-04-06T02:36:10;127.63;;;114.10;;
38226;SDS011;24026;49.446;8.576;2023-04-06T02:38:31;127.05;;;113.38;;
38226;SDS011;24026;49.446;8.576;2023-04-06T02:40:52;128.05;;;114.50;;
38226;SDS011;24026;49.446;8.576;2023-04-06T02:43:12;125.90;;;112.45;;
38226;SDS011;24026;49.446;8.576;2023-04-06T02:45:33;129.15;;;115.47;;
38226;SDS011;24026;49.446;8.576;2023-04-06T02:47:53;129.30;;;115.70;;
38226;SDS011;24026;49.446;8.576;2023-04-06T02:50:14;125.47;;;112.07;;
38226;SDS011;24026;49.446;8.576;2023-04-06T02:52:35;128.50;;;114.97;;
38226;SDS011;24026;49.446;8.576;2023-04-06T02:54:56;126.75;;;113.22;;
38226;SDS011;24026;49.446;8.576;2023-04-06T02:57:17;127.47;;;114.13;;
38226;SDS011;24026;49.446;8.576;2023-04-06T02:59:37;128.50;;;114.75;;
38226;SDS011;24026;49.446;8.576;2023-04-06T03:01:58;125.10;;;111.72;;
38226;SDS011;24026;49.446;8.576;2023-04-06T03:04:18;128.52;;;114.90;;
38226;SDS011;24026;49.446;8.576;2023-04-06T03:06:39;128.73;;;115.18;;
38226;SDS011;24026;49.446;8.576;2023-04-06T03:08:59;127.93;;;114.50;;
38226;SDS011;24026;49.446;8.576;2023-04-06T03:11:20;128.07;;;114.60;;
38226;SDS011;24026;49.446;8.576;2023-04-06T03:13:40;127.45;;;114.00;;
38226;SDS011;24026;49.446;8.576;2023-04-06T03:16:01;128.50;;;115.00;;
38226;SDS011;24026;49.446;8.576;2023-04-06T03:18:22;128.15;;;114.75;;
38226;SDS011;24026;49.446;8.576;2023-04-06T03:20:43;127.40;;;113.97;;
38226;SDS011;24026;49.446;8.576;2023-04-06T03:23:04;128.45;;;115.07;;
38226;SDS011;24026;49.446;8.576;2023-04-06T03:25:26;126.28;;;112.93;;
38226;SDS011;24026;49.446;8.576;2023-04-06T03:27:46;127.03;;;113.45;;
38226;SDS011;24026;49.446;8.576;2023-04-06T03:30:07;123.75;;;110.50;;
38226;SDS011;24026;49.446;8.576;2023-04-06T03:32:27;128.77;;;115.25;;
38226;SDS011;24026;49.446;8.576;2023-04-06T03:34:48;126.85;;;113.40;;
38226;SDS011;24026;49.446;8.576;2023-04-06T03:37:08;127.55;;;114.05;;
38226;SDS011;24026;49.446;8.576;2023-04-06T03:39:29;123.30;;;109.95;;
38226;SDS011;24026;49.446;8.576;2023-04-06T03:41:49;128.57;;;114.97;;
38226;SDS011;24026;49.446;8.576;2023-04-06T03:44:10;126.82;;;113.55;;
38226;SDS011;24026;49.446;8.576;2023-04-06T03:46:30;124.45;;;110.93;;
38226;SDS011;24026;49.446;8.576;2023-04-06T03:48:51;125.18;;;111.85;;
38226;SDS011;24026;49.446;8.576;2023-04-06T03:51:11;126.28;;;113.05;;
38226;SDS011;24026;49.446;8.576;2023-04-06T03:53:31;126.25;;;112.90;;
38226;SDS011;24026;49.446;8.576;2023-04-06T03:55:52;124.65;;;111.45;;
38226;SDS011;24026;49.446;8.576;2023-04-06T03:58:12;127.10;;;113.80;;
38226;SDS011;24026;49.446;8.576;2023-04-06T04:00:33;125.20;;;111.90;;
38226;SDS011;24026;49.446;8.576;2023-04-06T04:02:53;127.53;;;114.07;;
38226;SDS011;24026;49.446;8.576;2023-04-06T04:05:14;128.57;;;115.18;;
38226;SDS011;24026;49.446;8.576;2023-04-06T04:07:35;126.53;;;113.05;;
38226;SDS011;24026;49.446;8.576;2023-04-06T04:09:56;124.22;;;110.97;;
38226;SDS011;24026;49.446;8.576;2023-04-06T04:12:17;126.07;;;112.85;;
38226;SDS011;24026;49.446;8.576;2023-04-06T04:14:37;124.47;;;111.22;;
38226;SDS011;24026;49.446;8.576;2023-04-06T04:16:58;127.47;;;114.07;;
38226;SDS011;24026;49.446;8.576;2023-04-06T04:19:18;126.82;;;113.43;;
38226;SDS011;24026;49.446;8.576;2023-04-06T04:21:42;123.45;;;110.05;;
38226;SDS011;24026;49.446;8.576;2023-04-06T04:24:06;127.88;;;114.40;;
38226;SDS011;24026;49.446;8.576;2023-04-06T04:26:27;126.47;;;113.07;;
38226;SDS011;24026;49.446;8.576;2023-04-06T04:28:47;127.85;;;114.32;;
38226;SDS011;24026;49.446;8.576;2023-04-06T04:31:08;125.10;;;111.78;;
38226;SDS011;24026;49.446;8.576;2023-04-06T04:33:28;129.05;;;115.15;;
38226;SDS011;24026;49.446;8.576;2023-04-06T04:35:48;127.70;;;114.18;;
38226;SDS011;24026;49.446;8.576;2023-04-06T04:38:09;127.45;;;113.97;;
38226;SDS011;24026;49.446;8.576;2023-04-06T04:40:29;127.28;;;113.80;;
38226;SDS011;24026;49.446;8.576;2023-04-06T04:42:50;124.78;;;111.53;;
38226;SDS011;24026;49.446;8.576;2023-04-06T04:45:11;126.60;;;113.25;;
38226;SDS011;24026;49.446;8.576;2023-04-06T04:47:31;126.70;;;113.35;;
38226;SDS011;24026;49.446;8.576;2023-04-06T04:49:52;127.43;;;113.97;;
38226;SDS011;24026;49.446;8.576;2023-04-06T04:52:12;125.90;;;112.65;;
38226;SDS011;24026;49.446;8.576;2023-04-06T04:54:33;127.75;;;114.40;;
38226;SDS011;24026;49.446;8.576;2023-04-06T04:56:53;128.07;;;114.57;;
38226;SDS011;24026;49.446;8.576;2023-04-06T04:59:13;126.82;;;113.28;;
38226;SDS011;24026;49.446;8.576;2023-04-06T05:01:34;125.32;;;111.93;;
38226;SDS011;24026;49.446;8.576;2023-04-06T05:03:55;126.05;;;112.40;;
38226;SDS011;24026;49.446;8.576;2023-04-06T05:06:15;132.27;;;118.20;;
38226;SDS011;24026;49.446;8.576;2023-04-06T05:08:36;130.98;;;117.10;;
38226;SDS011;24026;49.446;8.576;2023-04-06T05:10:57;131.80;;;117.50;;
38226;SDS011;24026;49.446;8.576;2023-04-06T05:13:17;127.78;;;114.07;;
38226;SDS011;24026;49.446;8.576;2023-04-06T05:15:38;135.82;;;121.13;;
38226;SDS011;24026;49.446;8.576;2023-04-06T05:18:00;169.27;;;151.57;;
38226;SDS011;24026;49.446;8.576;2023-04-06T05:20:21;148.35;;;132.68;;
38226;SDS011;24026;49.446;8.576;2023-04-06T05:22:41;139.65;;;124.80;;
38226;SDS011;24026;49.446;8.576;2023-04-06T05:25:02;141.85;;;126.88;;
38226;SDS011;24026;49.446;8.576;2023-04-06T05:27:23;139.18;;;124.45;;
38226;SDS011;24026;49.446;8.576;2023-04-06T05:29:43;136.02;;;121.43;;
38226;SDS011;24026;49.446;8.576;2023-04-06T05:32:04;166.50;;;148.75;;
38226;SDS011;24026;49.446;8.576;2023-04-06T05:34:26;150.77;;;134.73;;
38226;SDS011;24026;49.446;8.576;2023-04-06T05:36:49;147.43;;;132.00;;
38226;SDS011;24026;49.446;8.576;2023-04-06T05:39:09;148.43;;;132.68;;
38226;SDS011;24026;49.446;8.576;2023-04-06T05:41:32;149.52;;;133.85;;
38226;SDS011;24026;49.446;8.576;2023-04-06T05:43:52;149.93;;;133.75;;
38226;SDS011;24026;49.446;8.576;2023-04-06T05:46:13;150.05;;;133.75;;
38226;SDS011;24026;49.446;8.576;2023-04-06T05:48:33;164.18;;;137.20;;
38226;SDS011;24026;49.446;8.576;2023-04-06T05:50:54;192.02;;;171.82;;
38226;SDS011;24026;49.446;8.576;2023-04-06T05:53:14;155.68;;;138.88;;
38226;SDS011;24026;49.446;8.576;2023-04-06T05:55:35;152.85;;;136.52;;
38226;SDS011;24026;49.446;8.576;2023-04-06T05:57:56;154.23;;;137.70;;
38226;SDS011;24026;49.446;8.576;2023-04-06T06:00:16;153.82;;;138.07;;
38226;SDS011;24026;49.446;8.576;2023-04-06T06:02:37;153.45;;;136.82;;
38226;SDS011;24026;49.446;8.576;2023-04-06T06:04:59;158.20;;;138.05;;
38226;SDS011;24026;49.446;8.576;2023-04-06T06:07:20;156.57;;;136.60;;
38226;SDS011;24026;49.446;8.576;2023-04-06T06:09:40;152.73;;;134.80;;
38226;SDS011;24026;49.446;8.576;2023-04-06T06:12:01;158.05;;;140.73;;
38226;SDS011;24026;49.446;8.576;2023-04-06T06:14:21;161.73;;;137.73;;
38226;SDS011;24026;49.446;8.576;2023-04-06T06:16:42;157.40;;;140.80;;
38226;SDS011;24026;49.446;8.576;2023-04-06T06:19:02;166.77;;;143.13;;
38226;SDS011;24026;49.446;8.576;2023-04-06T06:21:23;163.23;;;144.95;;
38226;SDS011;24026;49.446;8.576;2023-04-06T06:23:45;165.68;;;147.40;;
38226;SDS011;24026;49.446;8.576;2023-04-06T06:26:07;161.68;;;142.85;;
38226;SDS011;24026;49.446;8.576;2023-04-06T06:28:27;186.85;;;152.85;;
38226;SDS011;24026;49.446;8.576;2023-04-06T06:30:48;173.07;;;148.80;;
38226;SDS011;24026;49.446;8.576;2023-04-06T06:33:08;175.07;;;140.93;;
38226;SDS011;24026;49.446;8.576;2023-04-06T06:35:29;172.82;;;145.32;;
38226;SDS011;24026;49.446;8.576;2023-04-06T06:37:49;193.00;;;159.07;;
38226;SDS011;24026;49.446;8.576;2023-04-06T06:40:10;184.43;;;154.93;;
38226;SDS011;24026;49.446;8.576;2023-04-06T06:42:33;188.45;;;153.77;;
38226;SDS011;24026;49.446;8.576;2023-04-06T06:44:53;194.38;;;170.43;;
38226;SDS011;24026;49.446;8.576;2023-04-06T06:47:16;242.70;;;216.80;;
38226;SDS011;24026;49.446;8.576;2023-04-06T06:49:37;240.88;;;211.57;;
38226;SDS011;24026;49.446;8.576;2023-04-06T06:51:57;199.70;;;176.52;;
38226;SDS011;24026;49.446;8.576;2023-04-06T06:54:18;203.38;;;166.98;;
38226;SDS011;24026;49.446;8.576;2023-04-06T06:56:38;199.13;;;164.70;;
38226;SDS011;24026;49.446;8.576;2023-04-06T06:58:59;203.77;;;168.27;;
38226;SDS011;24026;49.446;8.576;2023-04-06T07:01:19;204.15;;;166.63;;
38226;SDS011;24026;49.446;8.576;2023-04-06T07:03:40;202.27;;;163.52;;
38226;SDS011;24026;49.446;8.576;2023-04-06T07:06:00;202.20;;;168.55;;
38226;SDS011;24026;49.446;8.576;2023-04-06T07:08:21;210.38;;;165.75;;
38226;SDS011;24026;49.446;8.576;2023-04-06T07:10:43;188.43;;;164.63;;
38226;SDS011;24026;49.446;8.576;2023-04-06T07:13:03;188.18;;;163.27;;
38226;SDS011;24026;49.446;8.576;2023-04-06T07:15:23;180.80;;;158.18;;
38226;SDS011;24026;49.446;8.576;2023-04-06T07:17:44;183.15;;;157.50;;
38226;SDS011;24026;49.446;8.576;2023-04-06T07:20:05;185.10;;;155.43;;
38226;SDS011;24026;49.446;8.576;2023-04-06T07:22:26;177.30;;;157.52;;
38226;SDS011;24026;49.446;8.576;2023-04-06T07:24:46;366.85;;;327.83;;
38226;SDS011;24026;49.446;8.576;2023-04-06T07:27:06;513.67;;;447.20;;
38226;SDS011;24026;49.446;8.576;2023-04-06T07:29:27;234.13;;;205.07;;
38226;SDS011;24026;49.446;8.576;2023-04-06T07:31:47;230.07;;;205.07;;
38226;SDS011;24026;49.446;8.576;2023-04-06T07:34:09;194.10;;;173.30;;
38226;SDS011;24026;49.446;8.576;2023-04-06T07:36:29;189.80;;;169.30;;
38226;SDS011;24026;49.446;8.576;2023-04-06T07:38:49;189.65;;;169.20;;
38226;SDS011;24026;49.446;8.576;2023-04-06T07:41:10;188.75;;;168.75;;
38226;SDS011;24026;49.446;8.576;2023-04-06T07:43:31;186.57;;;167.23;;
38226;SDS011;24026;49.446;8.576;2023-04-06T07:45:51;188.75;;;168.30;;
38226;SDS011;24026;49.446;8.576;2023-04-06T07:48:12;190.98;;;167.05;;
38226;SDS011;24026;49.446;8.576;2023-04-06T07:50:32;181.00;;;161.13;;
38226;SDS011;24026;49.446;8.576;2023-04-06T07:52:53;183.23;;;163.88;;
38226;SDS011;24026;49.446;8.576;2023-04-06T07:55:13;184.88;;;165.00;;
38226;SDS011;24026;49.446;8.576;2023-04-06T07:57:34;180.52;;;161.48;;
38226;SDS011;24026;49.446;8.576;2023-04-06T07:59:55;176.75;;;157.35;;
38226;SDS011;24026;49.446;8.576;2023-04-06T08:02:15;178.57;;;157.52;;
38226;SDS011;24026;49.446;8.576;2023-04-06T08:04:36;175.82;;;157.23;;
38226;SDS011;24026;49.446;8.576;2023-04-06T08:06:56;175.88;;;157.00;;
38226;SDS011;24026;49.446;8.576;2023-04-06T08:09:17;176.20;;;157.60;;
38226;SDS011;24026;49.446;8.576;2023-04-06T08:11:37;569.72;;;244.43;;
38226;SDS011;24026;49.446;8.576;2023-04-06T08:13:58;337.42;;;191.48;;
38226;SDS011;24026;49.446;8.576;2023-04-06T08:16:18;281.13;;;180.13;;
38226;SDS011;24026;49.446;8.576;2023-04-06T08:18:39;267.73;;;181.35;;
38226;SDS011;24026;49.446;8.576;2023-04-06T08:20:59;262.48;;;175.63;;
38226;SDS011;24026;49.446;8.576;2023-04-06T08:23:20;257.35;;;173.27;;
38226;SDS011;24026;49.446;8.576;2023-04-06T08:25:41;246.50;;;172.65;;
38226;SDS011;24026;49.446;8.576;2023-04-06T08:28:02;241.95;;;171.30;;
38226;SDS011;24026;49.446;8.576;2023-04-06T08:30:23;229.95;;;169.38;;
38226;SDS011;24026;49.446;8.576;2023-04-06T08:32:45;236.07;;;168.77;;
38226;SDS011;24026;49.446;8.576;2023-04-06T08:35:06;222.60;;;161.75;;
38226;SDS011;24026;49.446;8.576;2023-04-06T08:37:27;217.48;;;164.93;;
38226;SDS011;24026;49.446;8.576;2023-04-06T08:39:48;211.00;;;163.73;;
38226;SDS011;24026;49.446;8.576;2023-04-06T08:42:18;207.20;;;155.57;;
38226;SDS011;24026;49.446;8.576;2023-04-06T08:44:40;195.88;;;154.88;;
38226;SDS011;24026;49.446;8.576;2023-04-06T08:47:02;202.48;;;157.13;;
38226;SDS011;24026;49.446;8.576;2023-04-06T08:49:25;195.88;;;158.75;;
38226;SDS011;24026;49.446;8.576;2023-04-06T08:51:47;201.10;;;162.95;;
38226;SDS011;24026;49.446;8.576;2023-04-06T08:54:07;189.48;;;155.55;;
38226;SDS011;24026;49.446;8.576;2023-04-06T08:56:28;189.20;;;157.27;;
38226;SDS011;24026;49.446;8.576;2023-04-06T08:58:49;189.02;;;158.52;;
38226;SDS011;24026;49.446;8.576;2023-04-06T09:01:12;195.45;;;161.25;;
38226;SDS011;24026;49.446;8.576;2023-04-06T09:03:38;190.93;;;156.75;;
38226;SDS011;24026;49.446;8.576;2023-04-06T09:06:00;183.57;;;158.40;;
38226;SDS011;24026;49.446;8.576;2023-04-06T09:08:21;184.02;;;159.65;;
38226;SDS011;24026;49.446;8.576;2023-04-06T09:10:41;188.20;;;156.45;;
38226;SDS011;24026;49.446;8.576;2023-04-06T09:13:02;180.10;;;152.40;;
38226;SDS011;24026;49.446;8.576;2023-04-06T09:15:24;185.18;;;158.80;;
38226;SDS011;24026;49.446;8.576;2023-04-06T09:17:45;186.55;;;157.73;;
38226;SDS011;24026;49.446;8.576;2023-04-06T09:20:06;184.75;;;160.23;;
38226;SDS011;24026;49.446;8.576;2023-04-06T09:22:35;183.27;;;158.50;;
38226;SDS011;24026;49.446;8.576;2023-04-06T09:24:56;186.45;;;154.23;;
38226;SDS011;24026;49.446;8.576;2023-04-06T09:27:17;182.32;;;152.88;;
38226;SDS011;24026;49.446;8.576;2023-04-06T09:29:38;183.07;;;151.32;;
38226;SDS011;24026;49.446;8.576;2023-04-06T09:32:05;177.65;;;151.52;;
38226;SDS011;24026;49.446;8.576;2023-04-06T09:34:27;191.95;;;147.30;;
38226;SDS011;24026;49.446;8.576;2023-04-06T09:36:47;175.90;;;150.70;;
38226;SDS011;24026;49.446;8.576;2023-04-06T09:39:07;179.32;;;152.52;;
38226;SDS011;24026;49.446;8.576;2023-04-06T09:41:32;176.23;;;152.38;;
38226;SDS011;24026;49.446;8.576;2023-04-06T09:46:25;195.48;;;167.15;;
38226;SDS011;24026;49.446;8.576;2023-04-06T09:48:45;188.95;;;160.90;;
38226;SDS011;24026;49.446;8.576;2023-04-06T09:51:06;187.35;;;166.45;;
38226;SDS011;24026;49.446;8.576;2023-04-06T09:53:27;183.77;;;163.68;;
38226;SDS011;24026;49.446;8.576;2023-04-06T09:55:51;182.45;;;162.93;;
38226;SDS011;24026;49.446;8.576;2023-04-06T09:58:17;184.38;;;163.77;;
38226;SDS011;24026;49.446;8.576;2023-04-06T10:00:57;186.52;;;163.68;;
38226;SDS011;24026;49.446;8.576;2023-04-06T10:05:57;185.18;;;164.60;;
38226;SDS011;24026;49.446;8.576;2023-04-06T10:08:24;190.45;;;162.75;;
38226;SDS011;24026;49.446;8.576;2023-04-06T10:10:47;190.88;;;170.27;;
38226;SDS011;24026;49.446;8.576;2023-04-06T10:13:11;195.30;;;172.85;;
38226;SDS011;24026;49.446;8.576;2023-04-06T10:15:32;201.43;;;175.35;;
38226;SDS011;24026;49.446;8.576;2023-04-06T10:17:53;200.48;;;178.73;;
38226;SDS011;24026;49.446;8.576;2023-04-06T10:20:16;213.63;;;183.63;;
38226;SDS011;24026;49.446;8.576;2023-04-06T10:22:53;218.95;;;195.10;;
38226;SDS011;24026;49.446;8.576;2023-04-06T10:25:28;222.43;;;198.13;;
38226;SDS011;24026;49.446;8.576;2023-04-06T10:27:50;223.10;;;194.93;;
38226;SDS011;24026;49.446;8.576;2023-04-06T10:30:25;223.43;;;193.45;;
38226;SDS011;24026;49.446;8.576;2023-04-06T10:32:46;218.55;;;190.35;;
38226;SDS011;24026;49.446;8.576;2023-04-06T10:35:07;223.07;;;192.30;;
38226;SDS011;24026;49.446;8.576;2023-04-06T10:37:51;220.02;;;195.77;;
38226;SDS011;24026;49.446;8.576;2023-04-06T10:40:21;215.52;;;189.00;;
38226;SDS011;24026;49.446;8.576;2023-04-06T10:42:45;216.98;;;191.07;;
38226;SDS011;24026;49.446;8.576;2023-04-06T10:45:06;222.60;;;193.15;;
38226;SDS011;24026;49.446;8.576;2023-04-06T10:47:27;215.18;;;188.75;;
38226;SDS011;24026;49.446;8.576;2023-04-06T10:50:00;223.15;;;193.68;;
38226;SDS011;24026;49.446;8.576;2023-04-06T10:52:20;217.63;;;193.90;;
38226;SDS011;24026;49.446;8.576;2023-04-06T10:54:41;214.98;;;191.80;;
38226;SDS011;24026;49.446;8.576;2023-04-06T10:57:05;217.20;;;189.70;;
38226;SDS011;24026;49.446;8.576;2023-04-06T10:59:28;215.13;;;191.45;;
38226;SDS011;24026;49.446;8.576;2023-04-06T11:01:49;212.43;;;189.10;;
38226;SDS011;24026;49.446;8.576;2023-04-06T11:04:10;212.48;;;189.27;;
38226;SDS011;24026;49.446;8.576;2023-04-06T11:06:33;215.48;;;191.85;;
38226;SDS011;24026;49.446;8.576;2023-04-06T11:08:54;210.27;;;187.82;;
38226;SDS011;24026;49.446;8.576;2023-04-06T11:11:16;215.45;;;190.40;;
38226;SDS011;24026;49.446;8.576;2023-04-06T11:15:58;217.68;;;193.98;;
38226;SDS011;24026;49.446;8.576;2023-04-06T11:18:19;215.63;;;192.70;;
38226;SDS011;24026;49.446;8.576;2023-04-06T11:20:40;209.82;;;187.48;;
38226;SDS011;24026;49.446;8.576;2023-04-06T11:23:00;216.02;;;192.77;;
38226;SDS011;24026;49.446;8.576;2023-04-06T11:25:21;213.00;;;190.55;;
38226;SDS011;24026;49.446;8.576;2023-04-06T11:27:42;213.57;;;190.43;;
38226;SDS011;24026;49.446;8.576;2023-04-06T11:30:03;213.45;;;190.82;;
38226;SDS011;24026;49.446;8.576;2023-04-06T11:32:24;211.80;;;190.20;;
38226;SDS011;24026;49.446;8.576;2023-04-06T11:34:44;214.77;;;192.73;;
38226;SDS011;24026;49.446;8.576;2023-04-06T11:37:08;214.40;;;191.65;;
38226;SDS011;24026;49.446;8.576;2023-04-06T11:39:29;217.05;;;194.25;;
38226;SDS011;24026;49.446;8.576;2023-04-06T11:41:51;214.80;;;192.30;;
38226;SDS011;24026;49.446;8.576;2023-04-06T11:44:12;211.35;;;188.63;;
38226;SDS011;24026;49.446;8.576;2023-04-06T11:46:32;210.82;;;188.73;;
38226;SDS011;24026;49.446;8.576;2023-04-06T11:48:53;210.95;;;189.43;;
38226;SDS011;24026;49.446;8.576;2023-04-06T11:51:21;210.98;;;188.73;;
38226;SDS011;24026;49.446;8.576;2023-04-06T11:53:46;212.13;;;189.88;;
38226;SDS011;24026;49.446;8.576;2023-04-06T11:56:06;225.43;;;190.75;;
38226;SDS011;24026;49.446;8.576;2023-04-06T11:58:27;208.90;;;186.90;;
38226;SDS011;24026;49.446;8.576;2023-04-06T12:00:47;207.90;;;185.57;;
38226;SDS011;24026;49.446;8.576;2023-04-06T12:03:08;223.35;;;188.05;;
38226;SDS011;24026;49.446;8.576;2023-04-06T12:05:29;207.45;;;184.65;;
38226;SDS011;24026;49.446;8.576;2023-04-06T12:07:50;205.60;;;183.38;;
38226;SDS011;24026;49.446;8.576;2023-04-06T12:10:10;202.27;;;180.50;;
38226;SDS011;24026;49.446;8.576;2023-04-06T12:12:32;206.88;;;182.95;;
38226;SDS011;24026;49.446;8.576;2023-04-06T12:14:52;206.07;;;184.27;;
38226;SDS011;24026;49.446;8.576;2023-04-06T12:17:13;201.73;;;180.43;;
38226;SDS011;24026;49.446;8.576;2023-04-06T12:19:33;217.38;;;194.70;;
38226;SDS011;24026;49.446;8.576;2023-04-06T12:21:53;214.38;;;192.13;;
38226;SDS011;24026;49.446;8.576;2023-04-06T12:24:14;206.93;;;185.43;;
38226;SDS011;24026;49.446;8.576;2023-04-06T12:26:35;206.48;;;184.80;;
38226;SDS011;24026;49.446;8.576;2023-04-06T12:28:57;208.00;;;185.90;;
38226;SDS011;24026;49.446;8.576;2023-04-06T12:31:26;202.38;;;180.60;;
38226;SDS011;24026;49.446;8.576;2023-04-06T12:33:47;204.70;;;182.00;;
38226;SDS011;24026;49.446;8.576;2023-04-06T12:36:12;203.93;;;181.95;;
38226;SDS011;24026;49.446;8.576;2023-04-06T12:38:33;198.73;;;177.40;;
38226;SDS011;24026;49.446;8.576;2023-04-06T12:40:54;204.70;;;182.30;;
38226;SDS011;24026;49.446;8.576;2023-04-06T12:43:14;204.55;;;182.55;;
38226;SDS011;24026;49.446;8.576;2023-04-06T12:45:35;202.98;;;179.73;;
38226;SDS011;24026;49.446;8.576;2023-04-06T12:47:56;202.57;;;179.98;;
38226;SDS011;24026;49.446;8.576;2023-04-06T12:50:16;211.38;;;184.05;;
38226;SDS011;24026;49.446;8.576;2023-04-06T12:52:37;201.38;;;175.80;;
38226;SDS011;24026;49.446;8.576;2023-04-06T12:54:57;186.45;;;166.48;;
38226;SDS011;24026;49.446;8.576;2023-04-06T12:57:20;180.40;;;161.52;;
38226;SDS011;24026;49.446;8.576;2023-04-06T12:59:43;177.13;;;158.52;;
38226;SDS011;24026;49.446;8.576;2023-04-06T13:02:04;176.30;;;158.27;;
38226;SDS011;24026;49.446;8.576;2023-04-06T13:04:25;177.27;;;158.02;;
38226;SDS011;24026;49.446;8.576;2023-04-06T13:06:46;175.65;;;155.27;;
38226;SDS011;24026;49.446;8.576;2023-04-06T13:09:06;174.02;;;156.23;;
38226;SDS011;24026;49.446;8.576;2023-04-06T13:11:27;177.60;;;159.25;;
38226;SDS011;24026;49.446;8.576;2023-04-06T13:13:48;178.55;;;159.43;;
38226;SDS011;24026;49.446;8.576;2023-04-06T13:16:08;178.38;;;159.10;;
38226;SDS011;24026;49.446;8.576;2023-04-06T13:18:29;173.98;;;155.65;;
38226;SDS011;24026;49.446;8.576;2023-04-06T13:20:51;169.35;;;151.95;;
38226;SDS011;24026;49.446;8.576;2023-04-06T13:23:11;167.65;;;149.90;;
38226;SDS011;24026;49.446;8.576;2023-04-06T13:25:32;167.43;;;149.95;;
38226;SDS011;24026;49.446;8.576;2023-04-06T13:27:52;172.60;;;154.18;;
38226;SDS011;24026;49.446;8.576;2023-04-06T13:30:13;169.20;;;151.82;;